This is the latest recevied weather packets stored in our database for station/object OE-11373. If no packets are shown the sender has not sent any weather packets the latest 10 day(s).
| Time | Temp. | Humidity | Pressure | Rain* | Wind** | Luminosity | Snow |
|---|---|---|---|---|---|---|---|
| 1788159314 | 15.56° C | 70% | 852.9 hPa | - | - | - | - |
| 1788158487 | 15.56° C | 70% | 852.8 hPa | - | - | - | - |
| 1788158113 | 15° C | 73% | 852.8 hPa | - | - | - | - |
| 1788157513 | 15° C | 78% | 852.7 hPa | - | - | - | - |
| 1788156686 | 14.44° C | 79% | 852.6 hPa | - | - | - | - |
| 1788156314 | 14.44° C | 80% | 852.6 hPa | - | - | - | - |
| 1788155714 | 14.44° C | 84% | 852.5 hPa | - | - | - | - |
| 1788154887 | 13.89° C | 85% | 852.4 hPa | - | - | - | - |
| 1788154513 | 13.33° C | 91% | 852.1 hPa | - | - | - | - |
| 1788153913 | 13.33° C | 91% | 852.2 hPa | - | - | - | - |
| 1788153087 | 13.89° C | 87% | 851.9 hPa | - | - | - | - |
| 1788152714 | 13.89° C | 98% | 851.6 hPa | - | - | - | - |
| 1788152113 | 15° C | 84% | 852 hPa | - | - | - | - |
| 1788151286 | 17.22° C | 70% | 851.7 hPa | - | - | - | - |
| 1788150914 | 16.11° C | 79% | 851.7 hPa | - | - | - | - |
| 1788150314 | 17.22° C | 66% | 851.9 hPa | - | - | - | - |
| 1788149725 | 17.78° C | 63% | 851.5 hPa | - | - | - | - |
| 1788149114 | 18.33° C | 63% | 851.4 hPa | - | - | - | - |
| 1788148513 | 17.78° C | 63% | 851.3 hPa | - | - | - | - |
| 1788147914 | 17.22° C | 68% | 851.2 hPa | - | - | - | - |
| 1788147314 | 16.67° C | 72% | 851.1 hPa | - | - | - | - |
| 1788146714 | 16.67° C | 70% | 851.2 hPa | - | - | - | - |
| 1788145886 | 16.67° C | 75% | 851.3 hPa | - | - | - | - |
| 1788145513 | 16.67° C | 74% | 851.4 hPa | - | - | - | - |
| 1788144913 | 16.11° C | 77% | 851.4 hPa | - | - | - | - |
* Rain since midnight (hover to see other rain measurements)
** Current wind speed in m/s (hover to see current wind gust speed)